sensor_id;sensor_type;location;lat;lon;timestamp;P1;durP1;ratioP1;P2;durP2;ratioP2
1577;SDS011;57623;53.608;10.004;2023-12-28T00:01:00;2.90;;;2.70;;
1577;SDS011;57623;53.608;10.004;2023-12-28T00:03:28;2.73;;;2.50;;
1577;SDS011;57623;53.608;10.004;2023-12-28T00:05:56;3.10;;;2.30;;
1577;SDS011;57623;53.608;10.004;2023-12-28T00:08:24;3.57;;;2.37;;
1577;SDS011;57623;53.608;10.004;2023-12-28T00:10:54;3.07;;;2.50;;
1577;SDS011;57623;53.608;10.004;2023-12-28T00:13:22;3.00;;;2.70;;
1577;SDS011;57623;53.608;10.004;2023-12-28T00:15:50;3.47;;;2.90;;
1577;SDS011;57623;53.608;10.004;2023-12-28T00:18:18;2.57;;;2.37;;
1577;SDS011;57623;53.608;10.004;2023-12-28T00:20:49;4.00;;;2.70;;
1577;SDS011;57623;53.608;10.004;2023-12-28T00:23:17;3.03;;;2.60;;
1577;SDS011;57623;53.608;10.004;2023-12-28T00:25:46;3.23;;;2.70;;
1577;SDS011;57623;53.608;10.004;2023-12-28T00:28:15;3.40;;;2.20;;
1577;SDS011;57623;53.608;10.004;2023-12-28T00:30:44;6.40;;;2.63;;
1577;SDS011;57623;53.608;10.004;2023-12-28T00:33:12;4.20;;;2.57;;
1577;SDS011;57623;53.608;10.004;2023-12-28T00:35:40;2.97;;;2.50;;
1577;SDS011;57623;53.608;10.004;2023-12-28T00:38:08;2.90;;;2.67;;
1577;SDS011;57623;53.608;10.004;2023-12-28T00:40:36;3.20;;;2.47;;
1577;SDS011;57623;53.608;10.004;2023-12-28T00:43:04;2.77;;;2.47;;
1577;SDS011;57623;53.608;10.004;2023-12-28T00:45:34;2.50;;;2.30;;
1577;SDS011;57623;53.608;10.004;2023-12-28T00:48:03;2.83;;;2.63;;
1577;SDS011;57623;53.608;10.004;2023-12-28T00:50:32;3.00;;;2.30;;
1577;SDS011;57623;53.608;10.004;2023-12-28T00:52:59;3.27;;;2.80;;
1577;SDS011;57623;53.608;10.004;2023-12-28T00:55:28;3.37;;;2.73;;
1577;SDS011;57623;53.608;10.004;2023-12-28T00:57:56;2.70;;;2.50;;
1577;SDS011;57623;53.608;10.004;2023-12-28T01:00:24;2.57;;;2.37;;
1577;SDS011;57623;53.608;10.004;2023-12-28T01:02:53;4.53;;;2.70;;
1577;SDS011;57623;53.608;10.004;2023-12-28T01:05:21;3.43;;;2.97;;
1577;SDS011;57623;53.608;10.004;2023-12-28T01:07:52;3.00;;;2.70;;
1577;SDS011;57623;53.608;10.004;2023-12-28T01:10:20;4.50;;;2.83;;
1577;SDS011;57623;53.608;10.004;2023-12-28T01:12:49;2.80;;;2.60;;
1577;SDS011;57623;53.608;10.004;2023-12-28T01:15:19;4.10;;;2.60;;
1577;SDS011;57623;53.608;10.004;2023-12-28T01:17:47;3.93;;;2.53;;
1577;SDS011;57623;53.608;10.004;2023-12-28T01:20:16;2.93;;;2.63;;
1577;SDS011;57623;53.608;10.004;2023-12-28T01:22:44;2.70;;;2.50;;
1577;SDS011;57623;53.608;10.004;2023-12-28T01:25:12;4.87;;;3.33;;
1577;SDS011;57623;53.608;10.004;2023-12-28T01:27:41;3.20;;;2.70;;
1577;SDS011;57623;53.608;10.004;2023-12-28T01:30:09;2.73;;;2.43;;
1577;SDS011;57623;53.608;10.004;2023-12-28T01:32:37;2.93;;;2.73;;
1577;SDS011;57623;53.608;10.004;2023-12-28T01:35:05;3.67;;;3.20;;
1577;SDS011;57623;53.608;10.004;2023-12-28T01:37:35;5.37;;;3.90;;
1577;SDS011;57623;53.608;10.004;2023-12-28T01:40:04;4.27;;;2.93;;
1577;SDS011;57623;53.608;10.004;2023-12-28T01:42:33;3.00;;;2.80;;
1577;SDS011;57623;53.608;10.004;2023-12-28T01:45:02;5.77;;;3.40;;
1577;SDS011;57623;53.608;10.004;2023-12-28T01:47:30;3.73;;;3.43;;
1577;SDS011;57623;53.608;10.004;2023-12-28T01:49:58;2.80;;;2.60;;
1577;SDS011;57623;53.608;10.004;2023-12-28T01:52:28;4.20;;;2.70;;
1577;SDS011;57623;53.608;10.004;2023-12-28T01:54:58;3.60;;;3.03;;
1577;SDS011;57623;53.608;10.004;2023-12-28T01:57:26;3.63;;;3.20;;
1577;SDS011;57623;53.608;10.004;2023-12-28T01:59:54;3.50;;;3.20;;
1577;SDS011;57623;53.608;10.004;2023-12-28T02:02:24;3.30;;;3.00;;
1577;SDS011;57623;53.608;10.004;2023-12-28T02:04:52;3.27;;;2.93;;
1577;SDS011;57623;53.608;10.004;2023-12-28T02:07:21;3.70;;;2.93;;
1577;SDS011;57623;53.608;10.004;2023-12-28T02:09:50;3.20;;;2.90;;
1577;SDS011;57623;53.608;10.004;2023-12-28T02:12:19;3.83;;;3.43;;
1577;SDS011;57623;53.608;10.004;2023-12-28T02:14:47;3.70;;;3.37;;
1577;SDS011;57623;53.608;10.004;2023-12-28T02:17:16;3.80;;;3.50;;
1577;SDS011;57623;53.608;10.004;2023-12-28T02:19:49;3.83;;;2.90;;
1577;SDS011;57623;53.608;10.004;2023-12-28T02:22:18;4.07;;;3.10;;
1577;SDS011;57623;53.608;10.004;2023-12-28T02:25:08;3.90;;;3.47;;
1577;SDS011;57623;53.608;10.004;2023-12-28T02:27:38;3.40;;;3.10;;
1577;SDS011;57623;53.608;10.004;2023-12-28T02:30:09;3.73;;;3.20;;
1577;SDS011;57623;53.608;10.004;2023-12-28T02:32:49;4.47;;;4.00;;
1577;SDS011;57623;53.608;10.004;2023-12-28T02:35:24;3.57;;;3.27;;
1577;SDS011;57623;53.608;10.004;2023-12-28T02:37:58;4.00;;;3.40;;
1577;SDS011;57623;53.608;10.004;2023-12-28T02:40:30;3.67;;;3.10;;
1577;SDS011;57623;53.608;10.004;2023-12-28T02:43:03;3.00;;;2.80;;
1577;SDS011;57623;53.608;10.004;2023-12-28T02:45:31;3.47;;;3.17;;
1577;SDS011;57623;53.608;10.004;2023-12-28T02:47:59;4.27;;;3.87;;
1577;SDS011;57623;53.608;10.004;2023-12-28T02:50:28;3.50;;;3.20;;
1577;SDS011;57623;53.608;10.004;2023-12-28T02:52:56;3.93;;;3.30;;
1577;SDS011;57623;53.608;10.004;2023-12-28T02:55:24;3.67;;;3.30;;
1577;SDS011;57623;53.608;10.004;2023-12-28T02:57:55;3.40;;;3.10;;
1577;SDS011;57623;53.608;10.004;2023-12-28T03:00:26;3.30;;;3.00;;
1577;SDS011;57623;53.608;10.004;2023-12-28T03:02:55;4.30;;;3.70;;
1577;SDS011;57623;53.608;10.004;2023-12-28T03:05:23;4.53;;;4.00;;
1577;SDS011;57623;53.608;10.004;2023-12-28T03:07:51;5.40;;;3.50;;
1577;SDS011;57623;53.608;10.004;2023-12-28T03:10:22;5.87;;;4.13;;
1577;SDS011;57623;53.608;10.004;2023-12-28T03:12:50;4.43;;;3.93;;
1577;SDS011;57623;53.608;10.004;2023-12-28T03:15:19;3.80;;;3.50;;
1577;SDS011;57623;53.608;10.004;2023-12-28T03:17:47;4.00;;;3.60;;
1577;SDS011;57623;53.608;10.004;2023-12-28T03:20:15;3.77;;;3.47;;
1577;SDS011;57623;53.608;10.004;2023-12-28T03:22:43;4.03;;;3.50;;
1577;SDS011;57623;53.608;10.004;2023-12-28T03:25:11;4.10;;;3.80;;
1577;SDS011;57623;53.608;10.004;2023-12-28T03:27:39;3.63;;;3.33;;
1577;SDS011;57623;53.608;10.004;2023-12-28T03:30:09;4.53;;;3.80;;
1577;SDS011;57623;53.608;10.004;2023-12-28T03:32:39;3.70;;;3.40;;
1577;SDS011;57623;53.608;10.004;2023-12-28T03:35:07;4.70;;;3.70;;
1577;SDS011;57623;53.608;10.004;2023-12-28T03:37:35;5.03;;;3.83;;
1577;SDS011;57623;53.608;10.004;2023-12-28T03:40:04;3.87;;;3.43;;
1577;SDS011;57623;53.608;10.004;2023-12-28T03:42:33;4.10;;;3.60;;
1577;SDS011;57623;53.608;10.004;2023-12-28T03:45:01;4.50;;;3.53;;
1577;SDS011;57623;53.608;10.004;2023-12-28T03:47:29;3.80;;;3.50;;
1577;SDS011;57623;53.608;10.004;2023-12-28T03:49:58;4.83;;;3.77;;
1577;SDS011;57623;53.608;10.004;2023-12-28T03:52:26;4.63;;;3.73;;
1577;SDS011;57623;53.608;10.004;2023-12-28T03:54:56;4.53;;;3.60;;
1577;SDS011;57623;53.608;10.004;2023-12-28T03:57:25;6.00;;;4.00;;
1577;SDS011;57623;53.608;10.004;2023-12-28T03:59:53;4.70;;;4.03;;
1577;SDS011;57623;53.608;10.004;2023-12-28T04:02:21;4.30;;;3.90;;
1577;SDS011;57623;53.608;10.004;2023-12-28T04:04:50;4.63;;;4.17;;
1577;SDS011;57623;53.608;10.004;2023-12-28T04:07:20;3.93;;;3.40;;
1577;SDS011;57623;53.608;10.004;2023-12-28T04:09:48;5.40;;;4.00;;
1577;SDS011;57623;53.608;10.004;2023-12-28T04:12:16;4.17;;;3.80;;
1577;SDS011;57623;53.608;10.004;2023-12-28T04:14:44;3.93;;;3.63;;
1577;SDS011;57623;53.608;10.004;2023-12-28T04:17:13;3.90;;;3.60;;
1577;SDS011;57623;53.608;10.004;2023-12-28T04:19:41;3.97;;;3.57;;
1577;SDS011;57623;53.608;10.004;2023-12-28T04:22:09;4.60;;;3.37;;
1577;SDS011;57623;53.608;10.004;2023-12-28T04:24:38;4.40;;;3.57;;
1577;SDS011;57623;53.608;10.004;2023-12-28T04:27:06;5.10;;;3.73;;
1577;SDS011;57623;53.608;10.004;2023-12-28T04:29:35;3.43;;;3.20;;
1577;SDS011;57623;53.608;10.004;2023-12-28T04:32:03;3.20;;;3.00;;
1577;SDS011;57623;53.608;10.004;2023-12-28T04:34:31;4.20;;;3.80;;
1577;SDS011;57623;53.608;10.004;2023-12-28T04:36:59;4.10;;;3.60;;
1577;SDS011;57623;53.608;10.004;2023-12-28T04:39:27;4.20;;;3.87;;
1577;SDS011;57623;53.608;10.004;2023-12-28T04:41:56;3.87;;;3.57;;
1577;SDS011;57623;53.608;10.004;2023-12-28T04:44:24;4.40;;;3.70;;
1577;SDS011;57623;53.608;10.004;2023-12-28T04:46:52;3.93;;;3.60;;
1577;SDS011;57623;53.608;10.004;2023-12-28T04:49:20;4.07;;;3.67;;
1577;SDS011;57623;53.608;10.004;2023-12-28T04:51:48;4.80;;;3.70;;
1577;SDS011;57623;53.608;10.004;2023-12-28T04:54:16;4.83;;;3.60;;
1577;SDS011;57623;53.608;10.004;2023-12-28T04:56:44;4.90;;;3.50;;
1577;SDS011;57623;53.608;10.004;2023-12-28T04:59:14;4.07;;;3.70;;
1577;SDS011;57623;53.608;10.004;2023-12-28T05:01:42;3.90;;;3.50;;
1577;SDS011;57623;53.608;10.004;2023-12-28T05:04:10;4.73;;;3.30;;
1577;SDS011;57623;53.608;10.004;2023-12-28T05:06:43;4.40;;;3.93;;
1577;SDS011;57623;53.608;10.004;2023-12-28T05:09:11;5.33;;;3.60;;
1577;SDS011;57623;53.608;10.004;2023-12-28T05:11:39;5.17;;;3.77;;
1577;SDS011;57623;53.608;10.004;2023-12-28T05:14:07;4.67;;;4.07;;
1577;SDS011;57623;53.608;10.004;2023-12-28T05:16:37;4.77;;;4.37;;
1577;SDS011;57623;53.608;10.004;2023-12-28T05:19:06;4.20;;;3.80;;
1577;SDS011;57623;53.608;10.004;2023-12-28T05:21:35;4.27;;;3.33;;
1577;SDS011;57623;53.608;10.004;2023-12-28T05:24:04;7.80;;;4.70;;
1577;SDS011;57623;53.608;10.004;2023-12-28T05:26:32;4.47;;;3.87;;
1577;SDS011;57623;53.608;10.004;2023-12-28T05:29:00;4.87;;;3.80;;
1577;SDS011;57623;53.608;10.004;2023-12-28T05:31:28;4.00;;;3.60;;
1577;SDS011;57623;53.608;10.004;2023-12-28T05:33:58;4.37;;;3.97;;
1577;SDS011;57623;53.608;10.004;2023-12-28T05:36:26;5.60;;;4.27;;
1577;SDS011;57623;53.608;10.004;2023-12-28T05:38:54;6.83;;;3.97;;
1577;SDS011;57623;53.608;10.004;2023-12-28T05:41:22;4.70;;;3.40;;
1577;SDS011;57623;53.608;10.004;2023-12-28T05:43:50;5.93;;;4.07;;
1577;SDS011;57623;53.608;10.004;2023-12-28T05:46:18;4.13;;;3.73;;
1577;SDS011;57623;53.608;10.004;2023-12-28T05:48:46;4.67;;;3.80;;
1577;SDS011;57623;53.608;10.004;2023-12-28T05:51:15;4.80;;;3.93;;
1577;SDS011;57623;53.608;10.004;2023-12-28T05:53:44;5.97;;;3.57;;
1577;SDS011;57623;53.608;10.004;2023-12-28T05:56:12;4.30;;;3.73;;
1577;SDS011;57623;53.608;10.004;2023-12-28T05:58:40;4.97;;;3.70;;
1577;SDS011;57623;53.608;10.004;2023-12-28T06:01:08;4.53;;;3.77;;
1577;SDS011;57623;53.608;10.004;2023-12-28T06:03:37;4.47;;;3.70;;
1577;SDS011;57623;53.608;10.004;2023-12-28T06:06:05;5.23;;;3.47;;
1577;SDS011;57623;53.608;10.004;2023-12-28T06:08:34;5.30;;;4.07;;
1577;SDS011;57623;53.608;10.004;2023-12-28T06:11:02;7.00;;;4.07;;
1577;SDS011;57623;53.608;10.004;2023-12-28T06:13:31;5.13;;;4.10;;
1577;SDS011;57623;53.608;10.004;2023-12-28T06:15:59;5.03;;;3.83;;
1577;SDS011;57623;53.608;10.004;2023-12-28T06:18:27;5.80;;;4.10;;
1577;SDS011;57623;53.608;10.004;2023-12-28T06:20:55;5.73;;;4.10;;
1577;SDS011;57623;53.608;10.004;2023-12-28T06:23:23;5.43;;;4.87;;
1577;SDS011;57623;53.608;10.004;2023-12-28T06:25:53;4.20;;;3.80;;
1577;SDS011;57623;53.608;10.004;2023-12-28T06:28:21;4.43;;;3.63;;
1577;SDS011;57623;53.608;10.004;2023-12-28T06:30:49;4.70;;;3.87;;
1577;SDS011;57623;53.608;10.004;2023-12-28T06:33:18;6.70;;;4.33;;
1577;SDS011;57623;53.608;10.004;2023-12-28T06:35:46;4.93;;;3.50;;
1577;SDS011;57623;53.608;10.004;2023-12-28T06:38:14;4.90;;;3.93;;
1577;SDS011;57623;53.608;10.004;2023-12-28T06:40:42;4.87;;;3.87;;
1577;SDS011;57623;53.608;10.004;2023-12-28T06:43:12;5.67;;;3.50;;
1577;SDS011;57623;53.608;10.004;2023-12-28T06:45:40;4.60;;;4.20;;
1577;SDS011;57623;53.608;10.004;2023-12-28T06:48:08;5.93;;;4.23;;
1577;SDS011;57623;53.608;10.004;2023-12-28T06:50:36;4.60;;;3.30;;
1577;SDS011;57623;53.608;10.004;2023-12-28T06:53:04;4.80;;;3.70;;
1577;SDS011;57623;53.608;10.004;2023-12-28T06:55:32;4.40;;;4.00;;
1577;SDS011;57623;53.608;10.004;2023-12-28T06:58:00;3.93;;;3.63;;
1577;SDS011;57623;53.608;10.004;2023-12-28T07:00:31;3.87;;;3.37;;
1577;SDS011;57623;53.608;10.004;2023-12-28T07:02:59;5.03;;;3.70;;
1577;SDS011;57623;53.608;10.004;2023-12-28T07:05:27;5.10;;;4.10;;
1577;SDS011;57623;53.608;10.004;2023-12-28T07:07:55;4.07;;;3.27;;
1577;SDS011;57623;53.608;10.004;2023-12-28T07:10:23;3.83;;;3.53;;
1577;SDS011;57623;53.608;10.004;2023-12-28T07:12:51;7.27;;;3.40;;
1577;SDS011;57623;53.608;10.004;2023-12-28T07:15:20;6.13;;;3.70;;
1577;SDS011;57623;53.608;10.004;2023-12-28T07:17:49;4.20;;;3.30;;
1577;SDS011;57623;53.608;10.004;2023-12-28T07:20:17;4.00;;;3.70;;
1577;SDS011;57623;53.608;10.004;2023-12-28T07:22:45;5.17;;;4.03;;
1577;SDS011;57623;53.608;10.004;2023-12-28T07:25:13;7.23;;;4.03;;
1577;SDS011;57623;53.608;10.004;2023-12-28T07:27:41;4.50;;;3.47;;
1577;SDS011;57623;53.608;10.004;2023-12-28T07:30:10;4.00;;;3.60;;
1577;SDS011;57623;53.608;10.004;2023-12-28T07:32:38;5.10;;;3.83;;
1577;SDS011;57623;53.608;10.004;2023-12-28T07:35:08;4.83;;;3.77;;
1577;SDS011;57623;53.608;10.004;2023-12-28T07:37:36;7.23;;;3.90;;
1577;SDS011;57623;53.608;10.004;2023-12-28T07:40:05;6.30;;;3.20;;
1577;SDS011;57623;53.608;10.004;2023-12-28T07:42:34;7.17;;;3.80;;
1577;SDS011;57623;53.608;10.004;2023-12-28T07:45:02;4.77;;;3.60;;
1577;SDS011;57623;53.608;10.004;2023-12-28T07:47:30;4.87;;;3.57;;
1577;SDS011;57623;53.608;10.004;2023-12-28T07:49:59;4.30;;;3.80;;
1577;SDS011;57623;53.608;10.004;2023-12-28T07:52:30;3.53;;;3.20;;
1577;SDS011;57623;53.608;10.004;2023-12-28T07:54:58;9.47;;;3.53;;
1577;SDS011;57623;53.608;10.004;2023-12-28T07:57:26;11.63;;;4.13;;
1577;SDS011;57623;53.608;10.004;2023-12-28T07:59:54;4.33;;;3.37;;
1577;SDS011;57623;53.608;10.004;2023-12-28T08:02:22;3.73;;;3.43;;
1577;SDS011;57623;53.608;10.004;2023-12-28T08:04:50;4.67;;;3.40;;
1577;SDS011;57623;53.608;10.004;2023-12-28T08:07:18;6.20;;;3.50;;
1577;SDS011;57623;53.608;10.004;2023-12-28T08:09:47;8.17;;;3.23;;
1577;SDS011;57623;53.608;10.004;2023-12-28T08:12:15;10.10;;;5.80;;
1577;SDS011;57623;53.608;10.004;2023-12-28T08:14:44;3.67;;;2.90;;
1577;SDS011;57623;53.608;10.004;2023-12-28T08:17:12;5.53;;;3.00;;
1577;SDS011;57623;53.608;10.004;2023-12-28T08:19:40;5.30;;;3.10;;
1577;SDS011;57623;53.608;10.004;2023-12-28T08:22:08;5.87;;;3.13;;
1577;SDS011;57623;53.608;10.004;2023-12-28T08:24:36;4.77;;;3.47;;
1577;SDS011;57623;53.608;10.004;2023-12-28T08:27:05;6.33;;;3.30;;
1577;SDS011;57623;53.608;10.004;2023-12-28T08:29:33;3.60;;;3.03;;
1577;SDS011;57623;53.608;10.004;2023-12-28T08:32:02;4.93;;;3.10;;
1577;SDS011;57623;53.608;10.004;2023-12-28T08:34:31;4.30;;;2.77;;
1577;SDS011;57623;53.608;10.004;2023-12-28T08:36:59;5.30;;;2.93;;
1577;SDS011;57623;53.608;10.004;2023-12-28T08:39:27;2.80;;;2.60;;
1577;SDS011;57623;53.608;10.004;2023-12-28T08:41:55;6.97;;;3.00;;
1577;SDS011;57623;53.608;10.004;2023-12-28T08:44:25;6.90;;;3.10;;
1577;SDS011;57623;53.608;10.004;2023-12-28T08:46:53;5.80;;;3.50;;
1577;SDS011;57623;53.608;10.004;2023-12-28T08:49:21;6.97;;;3.00;;
1577;SDS011;57623;53.608;10.004;2023-12-28T08:51:50;5.87;;;2.70;;
1577;SDS011;57623;53.608;10.004;2023-12-28T08:54:18;5.23;;;2.80;;
1577;SDS011;57623;53.608;10.004;2023-12-28T08:56:46;6.20;;;2.67;;
1577;SDS011;57623;53.608;10.004;2023-12-28T08:59:18;12.07;;;3.43;;
1577;SDS011;57623;53.608;10.004;2023-12-28T09:01:48;4.70;;;2.77;;
1577;SDS011;57623;53.608;10.004;2023-12-28T09:04:16;3.00;;;2.43;;
1577;SDS011;57623;53.608;10.004;2023-12-28T09:06:44;7.20;;;3.20;;
1577;SDS011;57623;53.608;10.004;2023-12-28T09:09:12;4.17;;;2.63;;
1577;SDS011;57623;53.608;10.004;2023-12-28T09:11:41;4.87;;;2.20;;
1577;SDS011;57623;53.608;10.004;2023-12-28T09:14:09;6.03;;;2.60;;
1577;SDS011;57623;53.608;10.004;2023-12-28T09:16:37;3.10;;;2.53;;
1577;SDS011;57623;53.608;10.004;2023-12-28T09:19:06;3.87;;;2.50;;
1577;SDS011;57623;53.608;10.004;2023-12-28T09:21:34;4.40;;;2.17;;
1577;SDS011;57623;53.608;10.004;2023-12-28T09:24:03;6.90;;;3.07;;
1577;SDS011;57623;53.608;10.004;2023-12-28T09:26:31;5.30;;;2.90;;
1577;SDS011;57623;53.608;10.004;2023-12-28T09:28:59;4.37;;;2.53;;
1577;SDS011;57623;53.608;10.004;2023-12-28T09:31:27;2.60;;;2.40;;
1577;SDS011;57623;53.608;10.004;2023-12-28T09:33:55;4.70;;;2.67;;
1577;SDS011;57623;53.608;10.004;2023-12-28T09:36:25;5.80;;;2.90;;
1577;SDS011;57623;53.608;10.004;2023-12-28T09:38:53;4.77;;;2.27;;
1577;SDS011;57623;53.608;10.004;2023-12-28T09:41:21;7.07;;;2.53;;
1577;SDS011;57623;53.608;10.004;2023-12-28T09:43:53;4.80;;;2.50;;
1577;SDS011;57623;53.608;10.004;2023-12-28T09:46:25;6.60;;;2.80;;
1577;SDS011;57623;53.608;10.004;2023-12-28T09:48:53;4.13;;;2.10;;
1577;SDS011;57623;53.608;10.004;2023-12-28T09:51:25;6.80;;;2.50;;
1577;SDS011;57623;53.608;10.004;2023-12-28T09:53:53;6.20;;;2.37;;
1577;SDS011;57623;53.608;10.004;2023-12-28T09:56:21;4.93;;;2.20;;
1577;SDS011;57623;53.608;10.004;2023-12-28T09:58:52;5.93;;;2.20;;
1577;SDS011;57623;53.608;10.004;2023-12-28T10:01:22;5.20;;;2.30;;
1577;SDS011;57623;53.608;10.004;2023-12-28T10:03:50;6.93;;;2.33;;
1577;SDS011;57623;53.608;10.004;2023-12-28T10:06:18;4.60;;;2.90;;
1577;SDS011;57623;53.608;10.004;2023-12-28T10:08:49;7.87;;;2.57;;
1577;SDS011;57623;53.608;10.004;2023-12-28T10:11:17;5.40;;;2.57;;
1577;SDS011;57623;53.608;10.004;2023-12-28T10:13:47;4.93;;;2.10;;
1577;SDS011;57623;53.608;10.004;2023-12-28T10:16:16;9.10;;;2.60;;
1577;SDS011;57623;53.608;10.004;2023-12-28T10:18:44;6.33;;;2.30;;
1577;SDS011;57623;53.608;10.004;2023-12-28T10:21:11;8.97;;;3.23;;
1577;SDS011;57623;53.608;10.004;2023-12-28T10:23:39;4.90;;;3.57;;
1577;SDS011;57623;53.608;10.004;2023-12-28T10:26:10;5.90;;;2.70;;
1577;SDS011;57623;53.608;10.004;2023-12-28T10:28:39;6.73;;;2.40;;
1577;SDS011;57623;53.608;10.004;2023-12-28T10:31:07;5.10;;;2.77;;
1577;SDS011;57623;53.608;10.004;2023-12-28T10:33:36;5.33;;;2.13;;
1577;SDS011;57623;53.608;10.004;2023-12-28T10:36:06;4.03;;;2.20;;
1577;SDS011;57623;53.608;10.004;2023-12-28T10:38:36;5.90;;;2.30;;
1577;SDS011;57623;53.608;10.004;2023-12-28T10:41:05;6.77;;;2.40;;
1577;SDS011;57623;53.608;10.004;2023-12-28T10:43:38;5.87;;;2.47;;
1577;SDS011;57623;53.608;10.004;2023-12-28T10:46:15;6.30;;;2.50;;
1577;SDS011;57623;53.608;10.004;2023-12-28T10:48:50;4.13;;;2.40;;
1577;SDS011;57623;53.608;10.004;2023-12-28T10:51:20;4.40;;;2.30;;
1577;SDS011;57623;53.608;10.004;2023-12-28T10:53:54;5.50;;;2.63;;
1577;SDS011;57623;53.608;10.004;2023-12-28T10:56:33;6.23;;;2.60;;
1577;SDS011;57623;53.608;10.004;2023-12-28T10:59:09;3.90;;;1.90;;
1577;SDS011;57623;53.608;10.004;2023-12-28T11:01:43;8.20;;;2.50;;
1577;SDS011;57623;53.608;10.004;2023-12-28T11:04:16;4.60;;;2.00;;
1577;SDS011;57623;53.608;10.004;2023-12-28T11:06:51;11.17;;;2.37;;
1577;SDS011;57623;53.608;10.004;2023-12-28T11:09:20;5.10;;;2.30;;
1577;SDS011;57623;53.608;10.004;2023-12-28T11:11:49;6.10;;;2.70;;
1577;SDS011;57623;53.608;10.004;2023-12-28T11:14:20;7.53;;;2.50;;
1577;SDS011;57623;53.608;10.004;2023-12-28T11:16:49;8.53;;;2.57;;
1577;SDS011;57623;53.608;10.004;2023-12-28T11:19:17;7.60;;;2.50;;
1577;SDS011;57623;53.608;10.004;2023-12-28T11:21:47;4.13;;;2.33;;
1577;SDS011;57623;53.608;10.004;2023-12-28T11:24:16;6.03;;;2.67;;
1577;SDS011;57623;53.608;10.004;2023-12-28T11:26:50;5.77;;;2.50;;
1577;SDS011;57623;53.608;10.004;2023-12-28T11:29:22;8.43;;;2.70;;
1577;SDS011;57623;53.608;10.004;2023-12-28T11:31:51;6.20;;;2.70;;
1577;SDS011;57623;53.608;10.004;2023-12-28T11:34:24;5.60;;;2.60;;
1577;SDS011;57623;53.608;10.004;2023-12-28T11:36:54;6.57;;;2.60;;
1577;SDS011;57623;53.608;10.004;2023-12-28T11:39:29;10.43;;;2.70;;
1577;SDS011;57623;53.608;10.004;2023-12-28T11:42:00;5.57;;;2.40;;
1577;SDS011;57623;53.608;10.004;2023-12-28T11:44:30;9.07;;;2.63;;
1577;SDS011;57623;53.608;10.004;2023-12-28T11:46:59;8.13;;;2.50;;
1577;SDS011;57623;53.608;10.004;2023-12-28T11:49:37;13.30;;;3.17;;
1577;SDS011;57623;53.608;10.004;2023-12-28T11:52:07;14.57;;;3.70;;
1577;SDS011;57623;53.608;10.004;2023-12-28T11:54:37;7.90;;;2.80;;
1577;SDS011;57623;53.608;10.004;2023-12-28T11:57:05;11.10;;;2.77;;
1577;SDS011;57623;53.608;10.004;2023-12-28T11:59:34;7.70;;;2.87;;
1577;SDS011;57623;53.608;10.004;2023-12-28T12:02:04;8.33;;;2.97;;
1577;SDS011;57623;53.608;10.004;2023-12-28T12:04:34;7.73;;;3.13;;
1577;SDS011;57623;53.608;10.004;2023-12-28T12:07:02;5.57;;;2.87;;
1577;SDS011;57623;53.608;10.004;2023-12-28T12:09:31;5.03;;;2.93;;
1577;SDS011;57623;53.608;10.004;2023-12-28T12:12:01;10.77;;;2.90;;
1577;SDS011;57623;53.608;10.004;2023-12-28T12:14:29;6.17;;;3.27;;
1577;SDS011;57623;53.608;10.004;2023-12-28T12:16:59;5.63;;;2.40;;
1577;SDS011;57623;53.608;10.004;2023-12-28T12:19:28;8.33;;;3.37;;
1577;SDS011;57623;53.608;10.004;2023-12-28T12:21:56;9.93;;;2.50;;
1577;SDS011;57623;53.608;10.004;2023-12-28T12:24:24;13.27;;;3.30;;
1577;SDS011;57623;53.608;10.004;2023-12-28T12:26:52;6.43;;;2.70;;
1577;SDS011;57623;53.608;10.004;2023-12-28T12:29:19;10.03;;;2.80;;
1577;SDS011;57623;53.608;10.004;2023-12-28T12:31:54;8.90;;;3.40;;
1577;SDS011;57623;53.608;10.004;2023-12-28T12:34:24;10.03;;;2.60;;
1577;SDS011;57623;53.608;10.004;2023-12-28T12:36:53;7.87;;;2.87;;
1577;SDS011;57623;53.608;10.004;2023-12-28T12:39:22;7.70;;;3.17;;
1577;SDS011;57623;53.608;10.004;2023-12-28T12:41:51;6.80;;;2.60;;
1577;SDS011;57623;53.608;10.004;2023-12-28T12:44:20;9.40;;;3.70;;
1577;SDS011;57623;53.608;10.004;2023-12-28T12:46:48;9.00;;;3.13;;
1577;SDS011;57623;53.608;10.004;2023-12-28T12:49:25;10.20;;;4.07;;
1577;SDS011;57623;53.608;10.004;2023-12-28T12:51:53;7.57;;;2.70;;
1577;SDS011;57623;53.608;10.004;2023-12-28T12:54:22;10.43;;;2.73;;
1577;SDS011;57623;53.608;10.004;2023-12-28T12:56:50;9.37;;;3.50;;
1577;SDS011;57623;53.608;10.004;2023-12-28T12:59:19;7.80;;;3.40;;
1577;SDS011;57623;53.608;10.004;2023-12-28T13:01:47;8.13;;;2.50;;
1577;SDS011;57623;53.608;10.004;2023-12-28T13:04:16;9.50;;;3.13;;
1577;SDS011;57623;53.608;10.004;2023-12-28T13:06:45;4.20;;;2.90;;
1577;SDS011;57623;53.608;10.004;2023-12-28T13:09:14;5.43;;;2.57;;
1577;SDS011;57623;53.608;10.004;2023-12-28T13:11:42;5.83;;;2.70;;
1577;SDS011;57623;53.608;10.004;2023-12-28T13:14:10;8.20;;;2.63;;
1577;SDS011;57623;53.608;10.004;2023-12-28T13:16:38;5.40;;;3.17;;
1577;SDS011;57623;53.608;10.004;2023-12-28T13:19:06;8.70;;;2.73;;
1577;SDS011;57623;53.608;10.004;2023-12-28T13:21:34;9.43;;;2.93;;
1577;SDS011;57623;53.608;10.004;2023-12-28T13:24:04;6.67;;;2.50;;
1577;SDS011;57623;53.608;10.004;2023-12-28T13:26:32;7.40;;;2.57;;
1577;SDS011;57623;53.608;10.004;2023-12-28T13:29:00;8.50;;;2.70;;
1577;SDS011;57623;53.608;10.004;2023-12-28T13:31:31;5.63;;;2.50;;
1577;SDS011;57623;53.608;10.004;2023-12-28T13:34:00;6.53;;;2.17;;
1577;SDS011;57623;53.608;10.004;2023-12-28T13:36:28;8.03;;;2.90;;
1577;SDS011;57623;53.608;10.004;2023-12-28T13:38:57;7.07;;;2.60;;
1577;SDS011;57623;53.608;10.004;2023-12-28T13:41:26;8.70;;;2.70;;
1577;SDS011;57623;53.608;10.004;2023-12-28T13:43:54;5.70;;;2.40;;
1577;SDS011;57623;53.608;10.004;2023-12-28T13:46:30;8.50;;;4.30;;
1577;SDS011;57623;53.608;10.004;2023-12-28T13:48:59;8.87;;;2.60;;
1577;SDS011;57623;53.608;10.004;2023-12-28T13:51:28;9.60;;;2.50;;
1577;SDS011;57623;53.608;10.004;2023-12-28T13:53:56;6.03;;;2.63;;
1577;SDS011;57623;53.608;10.004;2023-12-28T13:56:25;9.20;;;2.50;;
1577;SDS011;57623;53.608;10.004;2023-12-28T13:58:54;7.97;;;3.10;;
1577;SDS011;57623;53.608;10.004;2023-12-28T14:01:22;8.47;;;3.00;;
1577;SDS011;57623;53.608;10.004;2023-12-28T14:03:50;8.03;;;2.37;;
1577;SDS011;57623;53.608;10.004;2023-12-28T14:06:19;10.43;;;3.17;;
1577;SDS011;57623;53.608;10.004;2023-12-28T14:08:47;7.33;;;2.50;;
1577;SDS011;57623;53.608;10.004;2023-12-28T14:11:15;7.33;;;2.73;;
1577;SDS011;57623;53.608;10.004;2023-12-28T14:13:44;6.30;;;2.77;;
1577;SDS011;57623;53.608;10.004;2023-12-28T14:16:12;8.90;;;2.93;;
1577;SDS011;57623;53.608;10.004;2023-12-28T14:18:40;4.87;;;2.33;;
1577;SDS011;57623;53.608;10.004;2023-12-28T14:21:09;8.60;;;4.37;;
1577;SDS011;57623;53.608;10.004;2023-12-28T14:23:39;8.03;;;2.87;;
1577;SDS011;57623;53.608;10.004;2023-12-28T14:26:09;6.00;;;2.80;;
1577;SDS011;57623;53.608;10.004;2023-12-28T14:28:40;5.90;;;2.43;;
1577;SDS011;57623;53.608;10.004;2023-12-28T14:31:10;5.60;;;3.07;;
1577;SDS011;57623;53.608;10.004;2023-12-28T14:33:39;9.10;;;3.30;;
1577;SDS011;57623;53.608;10.004;2023-12-28T14:36:13;5.80;;;2.30;;
1577;SDS011;57623;53.608;10.004;2023-12-28T14:38:50;6.33;;;2.30;;
1577;SDS011;57623;53.608;10.004;2023-12-28T14:41:18;7.53;;;2.30;;
1577;SDS011;57623;53.608;10.004;2023-12-28T14:43:46;8.63;;;2.67;;
1577;SDS011;57623;53.608;10.004;2023-12-28T14:46:16;6.97;;;2.60;;
1577;SDS011;57623;53.608;10.004;2023-12-28T14:48:44;10.23;;;3.67;;
1577;SDS011;57623;53.608;10.004;2023-12-28T14:51:13;10.23;;;2.97;;
1577;SDS011;57623;53.608;10.004;2023-12-28T14:53:41;7.03;;;2.60;;
1577;SDS011;57623;53.608;10.004;2023-12-28T14:56:09;11.27;;;2.87;;
1577;SDS011;57623;53.608;10.004;2023-12-28T14:58:38;12.03;;;2.87;;